Time;durP1;ratioP1;P1;durP2;ratioP2;P2;SDS_P1;SDS_P2;PMS_P1;PMS_P2;Temp;Humidity;BMP_temperature;BMP_pressure;BME280_temperature;BME280_humidity;BME280_pressure;Samples;Min_cycle;Max_cycle;Signal;HPM_P1;HPM_P2
2023/04/15 00:00:58;;;;;;;20.15;5.30;;;;;;;7.47;100.00;100708.75;5038685;28;20047;-89
2023/04/15 00:03:25;;;;;;;18.25;5.30;;;;;;;7.22;100.00;100673.78;5044161;28;20064;-88
2023/04/15 00:05:52;;;;;;;18.70;4.95;;;;;;;7.16;100.00;100665.25;5056097;28;20120;-88
2023/04/15 00:08:19;;;;;;;19.05;5.22;;;;;;;7.36;100.00;100685.59;5038169;28;20144;-88
2023/04/15 00:10:46;;;;;;;12.98;4.75;;;;;;;7.64;100.00;100729.19;5038775;28;20041;-88
2023/04/15 00:13:14;;;;;;;15.43;4.15;;;;;;;7.31;100.00;100683.13;5056368;28;20056;-89
2023/04/15 00:15:41;;;;;;;20.15;5.50;;;;;;;7.07;100.00;100648.09;5055865;28;20049;-88
2023/04/15 00:18:09;;;;;;;15.15;4.32;;;;;;;7.26;100.00;100661.53;5057153;28;20056;-89
2023/04/15 00:20:36;;;;;;;20.38;6.25;;;;;;;7.29;100.00;100669.25;5056895;28;20045;-89
2023/04/15 00:23:04;;;;;;;20.60;5.50;;;;;;;7.20;100.00;100652.09;5039785;28;20045;-89
2023/04/15 00:25:31;;;;;;;16.70;6.15;;;;;;;7.19;100.00;100659.97;5040725;28;20049;-89
2023/04/15 00:27:58;;;;;;;13.98;4.80;;;;;;;7.27;100.00;100650.19;5040416;28;20044;-89
2023/04/15 00:30:25;;;;;;;17.58;5.75;;;;;;;7.71;100.00;100705.53;5059736;28;20486;-90
2023/04/15 00:32:52;;;;;;;17.33;5.57;;;;;;;7.49;100.00;100701.75;5060882;28;20449;-87
2023/04/15 00:35:19;;;;;;;14.30;4.75;;;;;;;7.71;100.00;100702.06;5042723;28;20115;-89
2023/04/15 00:37:46;;;;;;;22.30;7.53;;;;;;;7.60;100.00;100705.81;5042692;28;20055;-88
2023/04/15 00:40:17;;;;;;;17.48;6.18;;;;;;;7.62;100.00;100725.78;5042130;28;20052;-89
2023/04/15 00:42:44;;;;;;;18.65;6.13;;;;;;;7.59;100.00;100714.50;5051603;28;20053;-89
2023/04/15 00:45:11;;;;;;;13.70;6.10;;;;;;;7.76;100.00;100734.09;5040394;28;20128;-88
2023/04/15 00:47:41;;;;;;;14.63;3.80;;;;;;;8.06;100.00;100748.06;5056190;28;20049;-89
2023/04/15 00:50:08;;;;;;;14.98;5.80;;;;;;;7.58;100.00;100673.72;5043197;28;20099;-87
2023/04/15 00:52:35;;;;;;;14.52;4.78;;;;;;;7.84;100.00;100700.00;5042250;28;20102;-90
2023/04/15 00:55:03;;;;;;;14.90;5.25;;;;;;;7.76;100.00;100687.16;5042999;28;20157;-90
2023/04/15 00:57:30;;;;;;;12.48;4.15;;;;;;;7.95;100.00;100721.41;5060559;28;20104;-87
2023/04/15 00:59:57;;;;;;;16.30;5.47;;;;;;;8.29;100.00;100783.09;5037849;28;20660;-88
2023/04/15 01:02:24;;;;;;;14.15;5.43;;;;;;;7.85;100.00;100702.56;5037318;28;20049;-87
2023/04/15 01:04:51;;;;;;;10.15;3.60;;;;;;;7.88;100.00;100692.06;5042380;28;20102;-89
2023/04/15 01:07:18;;;;;;;7.82;2.90;;;;;;;8.06;100.00;100729.81;5042455;28;20136;-88
2023/04/15 01:09:45;;;;;;;10.02;3.33;;;;;;;8.07;100.00;100730.66;5042801;28;20045;-88
2023/04/15 01:12:14;;;;;;;8.05;2.85;;;;;;;8.33;100.00;100780.34;5041593;28;20056;-87
2023/04/15 01:14:41;;;;;;;8.75;2.85;;;;;;;8.08;100.00;100737.59;5042624;28;20098;-85
2023/04/15 01:17:08;;;;;;;8.38;2.97;;;;;;;8.34;100.00;100765.56;5060229;28;20052;-88
2023/04/15 01:19:38;;;;;;;8.48;2.53;;;;;;;8.28;100.00;100750.91;5043499;28;20103;-89
2023/04/15 01:22:05;;;;;;;9.63;3.15;;;;;;;8.31;100.00;100763.03;5036958;28;20037;-88
2023/04/15 01:24:32;;;;;;;12.68;4.85;;;;;;;8.14;100.00;100748.72;5058369;28;20625;-88
2023/04/15 01:26:59;;;;;;;10.63;4.07;;;;;;;8.31;100.00;100779.53;5042690;28;20070;-88
2023/04/15 01:29:26;;;;;;;8.93;3.10;;;;;;;8.24;100.00;100772.78;5042145;28;20055;-89
2023/04/15 01:31:55;;;;;;;11.27;3.72;;;;;;;8.33;100.00;100802.97;5041253;28;20392;-88
2023/04/15 01:34:22;;;;;;;9.15;3.00;;;;;;;7.91;100.00;100738.03;5038420;28;20479;-89
2023/04/15 01:36:49;;;;;;;13.40;3.75;;;;;;;8.11;100.00;100782.69;5027466;28;20052;-88
2023/04/15 01:39:16;;;;;;;9.50;4.05;;;;;;;8.24;100.00;100808.44;5057839;28;20052;-89
2023/04/15 01:41:43;;;;;;;10.88;3.40;;;;;;;7.44;100.00;100681.03;5057769;28;20041;-89
2023/04/15 01:44:09;;;;;;;12.73;4.18;;;;;;;8.05;100.00;100792.44;5041771;28;20045;-88
2023/04/15 01:46:36;;;;;;;14.50;4.45;;;;;;;7.76;100.00;100729.72;5059737;28;20494;-88
2023/04/15 01:49:03;;;;;;;10.88;3.80;;;;;;;8.24;100.00;100800.63;5038173;28;20049;-88
2023/04/15 01:51:30;;;;;;;16.52;4.05;;;;;;;7.82;100.00;100759.97;5041599;28;20044;-88
2023/04/15 01:53:57;;;;;;;9.55;3.42;;;;;;;8.03;100.00;100784.63;5040978;28;20052;-86
2023/04/15 01:56:24;;;;;;;10.98;3.53;;;;;;;8.11;100.00;100800.06;5041364;28;20478;-88
2023/04/15 01:58:51;;;;;;;10.80;3.22;;;;;;;7.94;100.00;100780.53;5038521;28;20053;-88
2023/04/15 02:01:18;;;;;;;9.30;3.13;;;;;;;7.78;100.00;100753.13;5041364;28;20132;-87
2023/04/15 02:03:46;;;;;;;11.88;4.30;;;;;;;8.10;100.00;100830.53;5041675;28;20064;-88
2023/04/15 02:06:13;;;;;;;10.27;3.15;;;;;;;7.87;100.00;100791.16;5043710;28;20080;-88
2023/04/15 02:08:40;;;;;;;11.32;3.90;;;;;;;8.08;100.00;100841.91;5047466;28;20060;-89
2023/04/15 02:11:08;;;;;;;11.32;3.67;;;;;;;7.92;100.00;100805.78;5057627;28;20041;-88
2023/04/15 02:13:35;;;;;;;11.40;4.47;;;;;;;7.72;100.00;100787.16;5041988;28;20052;-87
2023/04/15 02:16:02;;;;;;;13.13;3.88;;;;;;;8.08;100.00;100839.28;5054250;28;20053;-89
2023/04/15 02:18:29;;;;;;;8.18;3.03;;;;;;;7.87;100.00;100806.78;5042223;28;20056;-89
2023/04/15 02:20:57;;;;;;;11.65;3.25;;;;;;;7.76;100.00;100794.03;5041652;28;20037;-89
2023/04/15 02:23:24;;;;;;;10.00;3.08;;;;;;;7.87;100.00;100809.41;5056395;28;20045;-89
2023/04/15 02:25:51;;;;;;;11.23;4.20;;;;;;;7.62;100.00;100804.78;5036969;28;20099;-89
2023/04/15 02:28:20;;;;;;;12.10;4.38;;;;;;;7.63;100.00;100814.31;5059594;28;20049;-87
2023/04/15 02:30:51;;;;;;;14.27;4.40;;;;;;;8.05;100.00;100855.00;5041162;28;20540;-89
2023/04/15 02:33:19;;;;;;;8.57;3.38;;;;;;;7.67;100.00;100789.06;5041255;28;20064;-87
2023/04/15 02:35:46;;;;;;;11.90;3.45;;;;;;;7.85;100.00;100829.44;5058891;28;20441;-88
2023/04/15 02:38:15;;;;;;;9.57;3.20;;;;;;;7.56;100.00;100776.25;5040632;28;20067;-89
2023/04/15 02:40:42;;;;;;;10.30;3.10;;;;;;;7.72;100.00;100811.50;5059070;28;20044;-87
2023/04/15 02:43:09;;;;;;;10.15;3.20;;;;;;;7.48;100.00;100799.06;5040814;28;20056;-88
2023/04/15 02:45:36;;;;;;;9.82;3.50;;;;;;;7.64;100.00;100823.00;5041163;28;20045;-88
2023/04/15 02:48:05;;;;;;;8.77;3.63;;;;;;;7.71;100.00;100842.81;5040575;28;20044;-88
2023/04/15 02:50:32;;;;;;;11.13;3.90;;;;;;;7.41;100.00;100812.22;5041686;28;20052;-88
2023/04/15 02:53:03;;;;;;;10.43;4.13;;;;;;;7.36;100.00;100818.44;5041007;28;20094;-88
2023/04/15 02:55:30;;;;;;;7.88;3.15;;;;;;;7.19;100.00;100792.78;5042571;28;20049;-87
2023/04/15 02:57:59;;;;;;;11.40;4.47;;;;;;;6.95;100.00;100792.41;5059398;28;20044;-89
2023/04/15 03:00:26;;;;;;;10.40;3.22;;;;;;;7.44;100.00;100865.13;5041567;28;20049;-88
2023/04/15 03:02:58;;;;;;;11.93;3.90;;;;;;;7.66;100.00;100902.00;5030790;28;20044;-88
2023/04/15 03:05:25;;;;;;;14.77;3.70;;;;;;;7.06;100.00;100849.47;5040696;28;20525;-88
2023/04/15 03:07:52;;;;;;;12.75;4.20;;;;;;;7.24;100.00;100902.88;5039949;28;20059;-88
2023/04/15 03:10:20;;;;;;;10.45;3.78;;;;;;;6.82;100.00;100830.88;5041344;28;20056;-88
2023/04/15 03:12:47;;;;;;;10.88;3.40;;;;;;;7.04;100.00;100835.63;5040930;28;20400;-88
2023/04/15 03:15:14;;;;;;;11.68;3.97;;;;;;;6.94;100.00;100839.31;5040923;28;20568;-89
2023/04/15 03:17:41;;;;;;;13.95;3.85;;;;;;;7.28;100.00;100912.38;5058980;28;20052;-89
2023/04/15 03:20:09;;;;;;;12.55;3.92;;;;;;;7.26;100.00;100890.72;5059158;28;20132;-88
2023/04/15 03:22:35;;;;;;;11.77;4.07;;;;;;;6.80;100.00;100801.41;5040329;28;20525;-88
2023/04/15 03:25:02;;;;;;;15.90;4.70;;;;;;;7.08;100.00;100862.44;5040877;28;20478;-89
2023/04/15 03:27:29;;;;;;;15.48;4.53;;;;;;;7.30;100.00;100901.94;5040469;28;20472;-88
2023/04/15 03:29:56;;;;;;;13.82;5.63;;;;;;;6.99;100.00;100889.53;5040749;28;20056;-88
2023/04/15 03:32:23;;;;;;;17.83;6.22;;;;;;;6.90;100.00;100877.56;5039858;28;20060;-88
2023/04/15 03:34:50;;;;;;;13.43;4.85;;;;;;;7.17;100.00;100914.31;5057382;28;20044;-87
2023/04/15 03:37:17;;;;;;;9.32;3.88;;;;;;;7.24;100.00;100928.94;5056793;28;20060;-87
2023/04/15 03:39:43;;;;;;;9.85;4.50;;;;;;;7.40;100.00;100947.72;5058686;28;20056;-88
2023/04/15 03:42:10;;;;;;;9.02;3.33;;;;;;;7.27;100.00;100920.22;5039910;28;20045;-89
2023/04/15 03:44:37;;;;;;;11.70;5.00;;;;;;;7.26;100.00;100940.22;5057586;28;20053;-89
2023/04/15 03:47:04;;;;;;;11.55;4.55;;;;;;;7.22;100.00;100923.78;5040830;28;20067;-88
2023/04/15 03:49:31;;;;;;;11.55;4.55;;;;;;;7.51;100.00;100953.56;5053904;28;20124;-89
2023/04/15 03:51:58;;;;;;;14.52;4.75;;;;;;;7.17;100.00;100906.50;5057318;28;20045;-88
2023/04/15 03:54:25;;;;;;;13.02;5.20;;;;;;;7.01;100.00;100916.38;5039322;28;20049;-88
2023/04/15 03:56:52;;;;;;;13.27;5.35;;;;;;;7.20;100.00;100954.19;5040470;28;20049;-88
2023/04/15 03:59:18;;;;;;;12.15;5.00;;;;;;;7.08;100.00;100925.78;5039458;28;20128;-89
2023/04/15 04:01:45;;;;;;;10.48;4.35;;;;;;;7.27;100.00;100949.72;5041119;28;20528;-90
2023/04/15 04:04:12;;;;;;;12.23;5.13;;;;;;;6.93;100.00;100916.53;5058794;28;20053;-87
2023/04/15 04:06:39;;;;;;;12.73;6.18;;;;;;;7.22;100.00;100965.47;5042260;28;20472;-86
2023/04/15 04:09:06;;;;;;;13.60;5.05;;;;;;;7.19;100.00;100954.25;5049495;28;20051;-88
2023/04/15 04:11:33;;;;;;;16.27;6.63;;;;;;;7.08;100.00;100941.41;5060385;28;20048;-89
2023/04/15 04:14:00;;;;;;;16.25;5.95;;;;;;;7.38;100.00;100986.84;5061077;28;20037;-88
2023/04/15 04:16:27;;;;;;;19.90;7.30;;;;;;;7.14;100.00;100964.75;5035490;28;20060;-89
2023/04/15 04:18:54;;;;;;;15.73;7.03;;;;;;;6.93;100.00;100934.78;5030430;28;20493;-89
2023/04/15 04:21:20;;;;;;;17.02;8.13;;;;;;;7.01;100.00;100921.59;5041452;28;20049;-89
2023/04/15 04:23:47;;;;;;;16.48;6.78;;;;;;;7.20;100.00;100979.38;5044577;28;20056;-89
2023/04/15 04:26:15;;;;;;;15.23;6.90;;;;;;;7.38;100.00;100996.38;5045082;28;20487;-89
2023/04/15 04:28:41;;;;;;;14.18;5.72;;;;;;;7.16;100.00;100975.13;5044646;28;20045;-89
2023/04/15 04:31:08;;;;;;;18.48;8.50;;;;;;;6.82;100.00;100942.78;5052907;28;20471;-90
2023/04/15 04:33:35;;;;;;;22.45;10.55;;;;;;;6.75;100.00;100949.00;5044077;28;20053;-85
2023/04/15 04:36:02;;;;;;;22.55;11.02;;;;;;;6.68;100.00;100955.19;5047660;28;20045;-88
2023/04/15 04:38:29;;;;;;;31.25;12.52;;;;;;;6.70;100.00;100960.38;5044284;28;20057;-87
2023/04/15 04:40:56;;;;;;;35.60;15.52;;;;;;;6.94;100.00;101009.38;5043215;28;20053;-88
2023/04/15 04:43:23;;;;;;;34.95;15.43;;;;;;;6.80;100.00;101024.41;5044009;28;20053;-89
2023/04/15 04:45:50;;;;;;;31.40;15.32;;;;;;;6.23;100.00;100979.34;5044441;28;20083;-88
2023/04/15 04:48:17;;;;;;;28.38;13.30;;;;;;;6.18;100.00;100972.50;5061829;28;20049;-89
2023/04/15 04:50:45;;;;;;;21.90;10.73;;;;;;;6.24;100.00;100981.06;5061435;28;20041;-89
2023/04/15 04:53:12;;;;;;;21.33;10.23;;;;;;;6.41;100.00;101003.31;5043024;28;20071;-88
2023/04/15 04:55:39;;;;;;;25.13;12.15;;;;;;;6.35;100.00;101004.28;5043244;28;20059;-89
2023/04/15 04:58:06;;;;;;;47.67;16.15;;;;;;;6.31;100.00;101009.59;5061970;28;20041;-89
2023/04/15 05:00:33;;;;;;;27.98;13.15;;;;;;;5.90;100.00;100968.53;5044036;28;20044;-89
2023/04/15 05:02:59;;;;;;;31.13;13.98;;;;;;;5.93;100.00;100936.44;5043929;28;20544;-89
2023/04/15 05:05:27;;;;;;;32.70;15.82;;;;;;;5.94;100.00;100971.94;5044072;28;20450;-89
2023/04/15 05:07:53;;;;;;;35.72;15.30;;;;;;;6.07;100.00;100975.25;5040410;28;20055;-89
2023/04/15 05:10:20;;;;;;;38.15;17.55;;;;;;;5.78;100.00;100970.47;5043681;28;20049;-89
2023/04/15 05:12:47;;;;;;;35.00;16.17;;;;;;;6.28;100.00;101049.47;5059349;28;20048;-89
2023/04/15 05:15:14;;;;;;;33.65;15.77;;;;;;;6.17;100.00;101061.78;5042962;28;20045;-88
2023/04/15 05:17:40;;;;;;;29.88;14.90;;;;;;;5.86;100.00;101073.44;5037220;28;20055;-88
2023/04/15 05:20:08;;;;;;;24.38;13.55;;;;;;;5.89;100.00;101057.78;5058854;28;20077;-88
2023/04/15 05:22:35;;;;;;;24.02;12.68;;;;;;;6.03;100.00;101064.56;5040768;28;20045;-87
2023/04/15 05:25:02;;;;;;;23.20;12.88;;;;;;;6.17;100.00;101099.03;5034017;28;20053;-87
2023/04/15 05:27:29;;;;;;;29.83;14.75;;;;;;;6.10;100.00;101094.81;5059490;28;20057;-88
2023/04/15 05:29:56;;;;;;;30.77;15.40;;;;;;;5.57;100.00;101026.16;5039839;28;20411;-88
2023/04/15 05:32:24;;;;;;;36.53;19.38;;;;;;;5.86;100.00;101041.38;5043913;28;20049;-88
2023/04/15 05:34:51;;;;;;;40.65;18.80;;;;;;;5.81;100.00;101041.44;5045905;28;20075;-87
2023/04/15 05:37:21;;;;;;;37.90;19.02;;;;;;;5.88;100.00;101056.06;5056251;28;20053;-88
2023/04/15 05:39:48;;;;;;;46.03;19.27;;;;;;;5.79;100.00;101087.38;5041805;28;20048;-88
2023/04/15 05:42:14;;;;;;;28.05;15.25;;;;;;;5.93;100.00;101110.56;5058957;28;20471;-88
2023/04/15 05:44:41;;;;;;;30.48;16.92;;;;;;;5.65;100.00;101064.16;5041499;28;20045;-87
2023/04/15 05:47:09;;;;;;;27.42;15.13;;;;;;;5.98;100.00;101089.78;5041798;28;20049;-88
2023/04/15 05:49:36;;;;;;;29.48;16.08;;;;;;;5.75;100.00;101103.00;5040526;28;20041;-87
2023/04/15 05:52:02;;;;;;;33.45;17.15;;;;;;;5.68;100.00;101084.91;5039717;28;20052;-87
2023/04/15 05:54:30;;;;;;;30.85;16.98;;;;;;;5.92;100.00;101145.25;5041285;28;20059;-88
2023/04/15 05:56:57;;;;;;;30.35;16.30;;;;;;;5.61;100.00;101110.97;5041563;28;20049;-87
2023/04/15 05:59:24;;;;;;;38.05;21.17;;;;;;;5.87;100.00;101150.50;5040293;28;20045;-86
2023/04/15 06:01:51;;;;;;;47.33;26.20;;;;;;;5.34;100.00;101105.19;5038431;28;20045;-87
2023/04/15 06:04:18;;;;;;;48.78;24.80;;;;;;;5.14;100.00;101077.69;5037471;28;20471;-87
2023/04/15 06:06:46;;;;;;;39.95;18.33;;;;;;;5.60;100.00;101137.84;5056313;28;20052;-85
2023/04/15 06:09:12;;;;;;;50.42;27.23;;;;;;;5.28;100.00;101084.50;5033827;28;20068;-87
2023/04/15 06:11:40;;;;;;;47.72;25.45;;;;;;;5.54;100.00;101143.91;5038007;28;20049;-87
2023/04/15 06:14:07;;;;;;;59.38;30.42;;;;;;;5.40;100.00;101093.88;5057007;28;20060;-88
2023/04/15 06:16:35;;;;;;;47.63;27.30;;;;;;;5.27;100.00;101075.81;5039391;28;20060;-87
2023/04/15 06:19:02;;;;;;;57.75;32.17;;;;;;;5.18;100.00;101075.06;5040317;28;20049;-87
2023/04/15 06:21:30;;;;;;;63.72;31.38;;;;;;;5.49;100.00;101140.53;5035465;28;20040;-87
2023/04/15 06:24:00;;;;;;;68.57;31.35;;;;;;;5.39;100.00;101121.56;5057413;28;20045;-86
2023/04/15 06:26:27;;;;;;;59.50;32.40;;;;;;;5.22;100.00;101113.09;5039936;28;20123;-87
2023/04/15 06:28:54;;;;;;;52.60;28.17;;;;;;;5.25;100.00;101120.84;5054653;28;20094;-87
2023/04/15 06:31:21;;;;;;;41.60;21.95;;;;;;;5.61;100.00;101157.72;5038668;28;20054;-87
2023/04/15 06:33:48;;;;;;;38.85;22.67;;;;;;;5.30;100.00;101088.78;5039364;28;20863;-87
2023/04/15 06:36:15;;;;;;;46.55;25.20;;;;;;;5.75;100.00;101184.41;5039703;28;20048;-87
2023/04/15 06:38:41;;;;;;;33.72;18.25;;;;;;;5.83;100.00;101190.41;5057238;28;20049;-87
2023/04/15 06:41:08;;;;;;;31.25;15.05;;;;;;;5.36;100.00;101111.22;5038750;28;20041;-86
2023/04/15 06:43:35;;;;;;;25.92;14.73;;;;;;;6.22;100.00;101170.06;5037740;28;20048;-87
2023/04/15 06:46:02;;;;;;;33.67;19.17;;;;;;;7.00;100.00;101165.47;5049765;28;20053;-87
2023/04/15 06:48:29;;;;;;;36.80;19.92;;;;;;;6.51;100.00;101139.31;5046327;28;20049;-86
2023/04/15 06:50:57;;;;;;;31.35;15.95;;;;;;;7.13;100.00;101176.53;5053167;28;20053;-87
2023/04/15 06:53:27;;;;;;;33.75;16.95;;;;;;;6.94;100.00;101178.59;5036139;28;20045;-87
2023/04/15 06:55:53;;;;;;;26.67;16.13;;;;;;;7.63;100.00;101192.19;5048739;28;20045;-87
2023/04/15 06:58:20;;;;;;;26.52;13.93;;;;;;;7.20;100.00;101209.41;5054585;28;20064;-87
2023/04/15 07:00:47;;;;;;;25.08;14.35;;;;;;;7.88;100.00;101208.25;5035860;28;20053;-87
2023/04/15 07:03:14;;;;;;;19.35;10.55;;;;;;;8.64;100.00;101246.78;5037458;28;20098;-86
2023/04/15 07:05:42;;;;;;;17.00;8.50;;;;;;;8.62;100.00;101185.03;5044541;28;20379;-87
2023/04/15 07:08:09;;;;;;;13.43;6.38;;;;;;;8.82;100.00;101155.84;5038027;28;20041;-86
2023/04/15 07:10:36;;;;;;;14.20;7.07;;;;;;;9.56;100.00;101196.72;5052197;28;20051;-86
2023/04/15 07:13:03;;;;;;;17.17;8.65;;;;;;;9.43;100.00;101230.13;5052392;28;20406;-86
2023/04/15 07:15:29;;;;;;;14.38;7.95;;;;;;;9.44;100.00;101229.25;5036531;28;20060;-87
2023/04/15 07:17:56;;;;;;;20.88;12.52;;;;;;;9.84;100.00;101243.03;5049526;28;20479;-87
2023/04/15 07:20:23;;;;;;;27.63;15.05;;;;;;;10.03;100.00;101243.41;5036489;28;20056;-87
2023/04/15 07:22:50;;;;;;;16.17;7.43;;;;;;;10.08;100.00;101245.00;5035780;28;20052;-87
2023/04/15 07:25:17;;;;;;;19.67;10.75;;;;;;;10.42;100.00;101251.09;5052435;28;20053;-87
2023/04/15 07:27:44;;;;;;;18.35;10.50;;;;;;;10.48;100.00;101245.66;5044677;28;20049;-87
2023/04/15 07:30:12;;;;;;;8.68;3.70;;;;;;;9.59;100.00;101264.59;5048702;28;20056;-87
2023/04/15 07:32:39;;;;;;;9.65;4.38;;;;;;;9.04;100.00;101258.94;5051422;28;20041;-87
2023/04/15 07:35:06;;;;;;;7.85;2.97;;;;;;;10.00;100.00;101291.44;5053966;28;20532;-86
2023/04/15 07:37:33;;;;;;;8.25;3.22;;;;;;;9.72;100.00;101241.63;5031518;28;20057;-87
2023/04/15 07:40:00;;;;;;;7.78;2.85;;;;;;;9.77;100.00;101288.56;5026092;28;20480;-87
2023/04/15 07:42:28;;;;;;;10.02;3.13;;;;;;;9.52;100.00;101283.94;5052744;28;20045;-87
2023/04/15 07:44:55;;;;;;;8.38;2.88;;;;;;;9.43;100.00;101287.63;5036445;28;20497;-87
2023/04/15 07:47:22;;;;;;;7.20;2.97;;;;;;;9.25;100.00;101268.03;5036436;28;20521;-87
2023/04/15 07:49:50;;;;;;;7.75;2.70;;;;;;;9.84;100.00;101311.91;5054270;28;20056;-87
2023/04/15 07:52:17;;;;;;;10.63;3.72;;;;;;;10.21;100.00;101253.34;5035533;28;20049;-87
2023/04/15 07:54:44;;;;;;;7.45;2.70;;;;;;;10.80;100.00;101263.06;5050655;28;20045;-86
2023/04/15 07:57:11;;;;;;;7.20;2.55;;;;;;;10.50;100.00;101269.19;5036230;28;20084;-88
2023/04/15 07:59:37;;;;;;;8.13;3.25;;;;;;;11.32;100.00;101344.44;5034972;28;20045;-88
2023/04/15 08:02:04;;;;;;;7.25;2.70;;;;;;;11.42;100.00;101291.72;5035075;28;20471;-87
2023/04/15 08:04:32;;;;;;;8.45;3.20;;;;;;;11.31;100.00;101256.22;5036248;28;20056;-87
2023/04/15 08:06:59;;;;;;;9.02;4.00;;;;;;;11.15;100.00;101295.16;5053442;28;20041;-87
2023/04/15 08:09:26;;;;;;;8.82;3.67;;;;;;;11.27;100.00;101285.22;5036064;28;20471;-88
2023/04/15 08:11:53;;;;;;;6.60;2.55;;;;;;;11.32;100.00;101297.25;5052910;28;20045;-87
2023/04/15 08:14:20;;;;;;;6.65;2.47;;;;;;;11.76;100.00;101300.19;5035959;28;20624;-87
2023/04/15 08:16:47;;;;;;;9.82;2.85;;;;;;;11.39;100.00;101324.16;5035546;28;20075;-88
2023/04/15 08:19:13;;;;;;;7.40;2.33;;;;;;;11.34;100.00;101298.06;5032671;28;20053;-87
2023/04/15 08:21:40;;;;;;;8.48;3.00;;;;;;;11.29;100.00;101265.91;5041384;28;20055;-86
2023/04/15 08:24:07;;;;;;;7.43;2.63;;;;;;;11.92;100.00;101324.19;5053541;28;20041;-87
2023/04/15 08:26:34;;;;;;;9.15;3.03;;;;;;;11.49;100.00;101301.97;5035721;28;20735;-86
2023/04/15 08:29:01;;;;;;;6.38;2.38;;;;;;;11.92;100.00;101328.59;5053265;28;20049;-88
2023/04/15 08:31:29;;;;;;;8.50;2.25;;;;;;;12.59;100.00;101350.75;5035300;28;20045;-85
2023/04/15 08:33:56;;;;;;;7.43;2.22;;;;;;;12.30;100.00;101334.28;5047592;28;20077;-86
2023/04/15 08:36:23;;;;;;;6.82;2.30;;;;;;;12.08;100.00;101342.06;5034263;28;20057;-86
2023/04/15 08:38:50;;;;;;;5.95;1.75;;;;;;;12.16;100.00;101340.00;5052799;28;20110;-87
2023/04/15 08:41:16;;;;;;;5.53;1.60;;;;;;;13.01;100.00;101374.59;5052499;28;20732;-86
2023/04/15 08:43:50;;;;;;;5.18;1.80;;;;;;;12.20;100.00;101348.63;5031074;28;20037;-86
2023/04/15 08:46:17;;;;;;;8.38;2.40;;;;;;;12.34;100.00;101394.53;5051966;28;20056;-86
2023/04/15 08:48:46;;;;;;;9.05;2.38;;;;;;;12.46;100.00;101361.69;5022211;28;20056;-86
2023/04/15 08:51:15;;;;;;;7.18;2.20;;;;;;;11.58;100.00;101329.69;5037719;28;20052;-85
2023/04/15 08:53:43;;;;;;;6.72;2.58;;;;;;;11.34;100.00;101339.16;5056360;28;20495;-84
2023/04/15 08:56:13;;;;;;;7.95;2.20;;;;;;;11.67;100.00;101389.69;5056456;28;20048;-86
2023/04/15 08:58:40;;;;;;;8.77;2.50;;;;;;;12.10;100.00;101366.47;5035203;28;20403;-87
2023/04/15 09:01:07;;;;;;;11.70;3.53;;;;;;;11.92;100.00;101305.81;5037247;28;20474;-85
2023/04/15 09:03:35;;;;;;;10.20;3.13;;;;;;;12.13;100.00;101337.50;5042089;28;20161;-85
2023/04/15 09:06:04;;;;;;;7.15;2.60;;;;;;;12.06;100.00;101370.97;5056793;28;20048;-87
2023/04/15 09:08:33;;;;;;;10.35;3.25;;;;;;;12.27;100.00;101314.25;5056186;28;20059;-87
2023/04/15 09:11:01;;;;;;;10.02;2.70;;;;;;;12.79;100.00;101387.69;5038247;28;20341;-87
2023/04/15 09:13:29;;;;;;;9.95;2.78;;;;;;;12.43;100.00;101401.22;5055953;28;20482;-87
2023/04/15 09:15:58;;;;;;;9.77;2.95;;;;;;;12.37;100.00;101372.53;5038547;28;20057;-86
2023/04/15 09:18:32;;;;;;;6.85;2.25;;;;;;;12.82;100.00;101398.09;5055294;28;20409;-85
2023/04/15 09:21:10;;;;;;;8.90;3.10;;;;;;;12.97;100.00;101398.44;5043141;28;20049;-87
2023/04/15 09:23:38;;;;;;;8.60;2.65;;;;;;;12.54;100.00;101346.53;5030862;28;20125;-85
2023/04/15 09:26:05;;;;;;;11.50;3.00;;;;;;;12.71;100.00;101413.38;5054685;28;20048;-86
2023/04/15 09:28:32;;;;;;;8.63;2.83;;;;;;;12.37;100.00;101374.31;5033338;28;20057;-86
2023/04/15 09:30:59;;;;;;;12.27;3.17;;;;;;;12.38;100.00;101311.25;5028578;28;20470;-87
2023/04/15 09:33:28;;;;;;;10.20;3.63;;;;;;;12.02;100.00;101366.72;5043643;28;20083;-86
2023/04/15 09:36:00;;;;;;;9.73;2.70;;;;;;;12.08;100.00;101356.03;5035144;28;20052;-86
2023/04/15 09:38:58;;;;;;;9.23;3.63;;;;;;;12.07;100.00;101401.53;5035915;28;20434;-87
2023/04/15 09:41:26;;;;;;;13.07;3.50;;;;;;;12.24;100.00;101394.88;5045238;28;20540;-86
2023/04/15 09:43:52;;;;;;;10.30;3.47;;;;;;;11.77;100.00;101349.16;5040454;28;20045;-86
2023/04/15 09:46:19;;;;;;;8.95;3.15;;;;;;;12.03;100.00;101412.22;5056691;28;20053;-87
2023/04/15 09:49:05;;;;;;;12.10;3.05;;;;;;;11.63;100.00;101363.59;5055679;28;20462;-88
2023/04/15 09:51:34;;;;;;;11.13;3.50;;;;;;;11.53;100.00;101368.31;5055050;28;20060;-88
2023/04/15 09:54:02;;;;;;;7.72;2.88;;;;;;;11.81;100.00;101406.75;5037269;28;20048;-87
2023/04/15 09:56:37;;;;;;;15.82;3.95;;;;;;;12.08;100.00;101416.41;5055903;28;20048;-87
2023/04/15 09:59:04;;;;;;;9.70;3.28;;;;;;;12.45;100.00;101443.19;5038119;28;20187;-87
2023/04/15 10:01:31;;;;;;;13.63;4.30;;;;;;;12.47;100.00;101463.22;5026533;28;20049;-88
2023/04/15 10:04:04;;;;;;;10.25;2.90;;;;;;;12.40;100.00;101429.38;5056645;28;20041;-87
2023/04/15 10:06:33;;;;;;;13.55;3.95;;;;;;;12.09;100.00;101451.38;5055088;28;20140;-87
2023/04/15 10:09:00;;;;;;;13.20;4.30;;;;;;;11.70;100.00;101396.59;5046061;28;20052;-87
2023/04/15 10:11:28;;;;;;;10.70;2.88;;;;;;;12.14;100.00;101386.44;5038939;28;20032;-87
2023/04/15 10:13:57;;;;;;;10.73;3.42;;;;;;;12.04;100.00;101443.66;5038087;28;20045;-87
2023/04/15 10:16:27;;;;;;;10.07;2.40;;;;;;;11.72;100.00;101426.25;5036813;28;20053;-86
2023/04/15 10:18:55;;;;;;;7.47;2.80;;;;;;;12.37;100.00;101453.94;5043940;28;20052;-86
2023/04/15 10:21:23;;;;;;;11.45;3.25;;;;;;;11.86;100.00;101433.69;5036675;28;20053;-87
2023/04/15 10:23:51;;;;;;;13.50;3.30;;;;;;;12.13;100.00;101471.38;5037094;28;20406;-87
2023/04/15 10:26:18;;;;;;;9.43;3.17;;;;;;;11.84;100.00;101459.13;5033202;28;20041;-88
2023/04/15 10:28:48;;;;;;;12.73;3.83;;;;;;;11.86;100.00;101471.28;5053593;28;20064;-87
2023/04/15 10:31:17;;;;;;;11.20;2.90;;;;;;;12.00;100.00;101434.16;5027374;28;20045;-87
2023/04/15 10:33:46;;;;;;;7.75;2.83;;;;;;;12.29;100.00;101422.69;5054609;28;20048;-87
2023/04/15 10:36:14;;;;;;;10.75;2.78;;;;;;;12.40;100.00;101468.75;5053994;28;20060;-86
2023/04/15 10:38:43;;;;;;;9.75;2.65;;;;;;;12.93;100.00;101467.81;5053892;28;20041;-87
2023/04/15 10:41:30;;;;;;;11.68;2.97;;;;;;;12.34;100.00;101422.53;5023245;28;20045;-86
2023/04/15 10:44:03;;;;;;;10.30;3.20;;;;;;;12.43;100.00;101479.13;5032477;28;20045;-87
2023/04/15 10:46:38;;;;;;;12.20;2.85;;;;;;;12.56;100.00;101475.19;5036594;28;20045;-88
2023/04/15 10:49:10;;;;;;;7.93;2.70;;;;;;;12.65;100.00;101458.25;5046849;28;20053;-87
2023/04/15 10:51:45;;;;;;;11.98;2.50;;;;;;;12.47;100.00;101428.25;5039591;28;20049;-87
2023/04/15 10:54:24;;;;;;;9.88;2.83;;;;;;;12.42;100.00;101480.06;5033009;28;20131;-87
2023/04/15 10:57:07;;;;;;;11.32;2.75;;;;;;;12.93;100.00;101470.44;5033335;28;20113;-87
2023/04/15 10:59:57;;;;;;;13.20;3.15;;;;;;;12.76;100.00;101474.50;5052816;28;20487;-88
2023/04/15 11:02:44;;;;;;;9.55;3.03;;;;;;;12.36;100.00;101481.13;5034112;28;20053;-86
2023/04/15 11:05:14;;;;;;;12.02;3.38;;;;;;;12.24;100.00;101456.13;5055478;28;20057;-88
2023/04/15 11:07:48;;;;;;;8.25;2.83;;;;;;;12.48;100.00;101472.84;5037740;28;20141;-85
2023/04/15 11:10:25;;;;;;;8.77;2.47;;;;;;;12.44;100.00;101426.56;5046877;28;20103;-88
2023/04/15 11:12:56;;;;;;;14.43;3.55;;;;;;;12.72;100.00;101478.16;5053436;28;20048;-86
2023/04/15 11:15:32;;;;;;;9.85;2.70;;;;;;;12.28;100.00;101491.00;5036108;28;20049;-87
2023/04/15 11:18:23;;;;;;;6.55;1.92;;;;;;;12.42;100.00;101474.81;5055317;28;20063;-87